Time;durP1;ratioP1;P1;durP2;ratioP2;P2;SDS_P1;SDS_P2;PMS_P1;PMS_P2;Temp;Humidity;BMP_temperature;BMP_pressure;BME280_temperature;BME280_humidity;BME280_pressure;Samples;Min_cycle;Max_cycle;Signal;HPM_P1;HPM_P2
2023/04/22 00:01:28;;;;;;;7.70;4.37;;;11.10;81.50;;;9.79;68.46;99922.19;10379341;28;96852;-86
2023/04/22 00:06:31;;;;;;;9.30;5.07;;;11.20;81.00;;;9.82;69.04;99925.31;10413256;28;97409;-86
2023/04/22 00:11:34;;;;;;;6.90;4.93;;;11.20;81.30;;;9.85;68.90;99924.16;10376967;28;96725;-86
2023/04/22 00:16:37;;;;;;;9.17;5.20;;;11.30;82.10;;;9.76;69.25;99925.97;10396088;28;97553;-86
2023/04/22 00:21:41;;;;;;;8.33;5.67;;;11.20;81.80;;;9.75;69.44;99923.50;10380406;28;96807;-86
2023/04/22 00:26:44;;;;;;;7.83;5.20;;;11.20;82.10;;;9.67;69.91;99934.97;10411759;28;96918;-86
2023/04/22 00:31:47;;;;;;;7.57;5.33;;;11.10;82.60;;;9.59;70.46;99932.31;10368318;28;97411;-85
2023/04/22 00:36:50;;;;;;;11.00;5.20;;;11.10;83.20;;;9.51;70.35;99940.28;10380490;28;97308;-86
2023/04/22 00:41:54;;;;;;;9.47;5.40;;;10.90;84.20;;;9.40;70.07;99938.78;10374263;28;96571;-86
2023/04/22 00:46:58;;;;;;;8.60;4.63;;;10.90;83.70;;;9.30;69.80;99936.31;10393284;28;98581;-86
2023/04/22 00:52:02;;;;;;;6.30;4.63;;;10.70;83.90;;;9.17;69.97;99940.44;10374667;28;96658;-86
2023/04/22 00:57:05;;;;;;;10.07;5.80;;;10.60;84.20;;;9.06;70.37;99938.97;10410216;28;97319;-85
2023/04/22 01:02:09;;;;;;;9.60;5.23;;;10.50;84.50;;;8.97;70.70;99940.78;10377404;27;98476;-85
2023/04/22 01:07:12;;;;;;;7.30;5.33;;;10.40;85.30;;;8.88;71.34;99938.28;10381065;28;96964;-86
2023/04/22 01:12:15;;;;;;;7.17;4.87;;;10.30;85.80;;;8.80;71.53;99944.38;10401141;28;96920;-85
2023/04/22 01:17:20;;;;;;;10.93;5.93;;;10.20;86.30;;;8.74;71.93;99937.91;10381275;28;97505;-86
2023/04/22 01:22:28;;;;;;;10.40;4.60;;;10.10;86.50;;;8.74;71.98;99947.69;10382762;28;96773;-86
2023/04/22 01:27:33;;;;;;;11.43;6.50;;;10.20;87.10;;;8.71;71.70;99948.84;10401599;28;96762;-86
2023/04/22 01:32:39;;;;;;;6.83;5.30;;;10.10;87.30;;;8.68;71.75;99943.84;10381991;28;97293;-86
2023/04/22 01:37:43;;;;;;;10.67;5.53;;;10.10;87.70;;;8.65;72.55;99949.50;10384787;28;96529;-86
2023/04/22 01:42:47;;;;;;;9.10;6.00;;;10.10;88.10;;;8.63;72.66;99951.44;10382122;28;97286;-86
2023/04/22 01:47:50;;;;;;;6.73;4.47;;;10.10;88.50;;;8.63;72.03;99955.91;10382535;28;97319;-86
2023/04/22 01:52:53;;;;;;;7.33;4.27;;;10.00;88.60;;;8.55;72.56;99944.31;10398455;28;97436;-85
2023/04/22 01:57:56;;;;;;;6.77;4.40;;;10.00;89.10;;;8.50;73.16;99946.63;10380570;28;96592;-85
2023/04/22 02:02:59;;;;;;;7.43;4.67;;;10.00;89.90;;;8.46;73.64;99949.75;10397132;28;96657;-85
2023/04/22 02:08:03;;;;;;;8.87;4.57;;;9.90;90.20;;;8.41;73.77;99946.75;10380958;28;97353;-85
2023/04/22 02:13:06;;;;;;;7.87;4.70;;;9.80;90.30;;;8.43;73.92;99950.91;10378396;27;96484;-86
2023/04/22 02:18:09;;;;;;;7.03;4.97;;;9.80;90.60;;;8.41;74.29;99944.94;10398304;28;98616;-86
2023/04/22 02:23:13;;;;;;;6.93;4.10;;;9.80;90.80;;;8.39;73.88;99949.53;10377654;28;98584;-85
2023/04/22 02:28:17;;;;;;;9.53;4.33;;;9.80;90.90;;;8.28;74.43;99944.53;10379772;28;98555;-86
2023/04/22 02:33:20;;;;;;;7.60;5.80;;;9.80;91.30;;;8.20;74.65;99953.25;10378603;28;96718;-85
2023/04/22 02:38:23;;;;;;;10.40;5.00;;;9.60;91.50;;;8.13;74.27;99941.66;10378643;28;96578;-87
2023/04/22 02:43:26;;;;;;;7.17;4.70;;;9.60;91.70;;;8.08;74.45;99940.44;10381560;28;96679;-86
2023/04/22 02:48:29;;;;;;;7.80;4.83;;;9.50;91.80;;;8.02;74.88;99928.69;10362303;28;96581;-85
2023/04/22 02:53:32;;;;;;;7.27;4.60;;;9.50;92.10;;;7.96;74.85;99934.59;10365138;28;96621;-85
2023/04/22 02:58:35;;;;;;;7.63;4.90;;;9.40;92.20;;;7.89;75.84;99933.56;10380799;28;96506;-86
2023/04/22 03:03:38;;;;;;;11.83;5.73;;;9.40;92.40;;;7.89;75.55;99946.81;10399636;28;96662;-86
2023/04/22 03:08:42;;;;;;;7.93;4.40;;;9.40;92.70;;;7.78;75.64;99932.84;10415765;28;96772;-84
2023/04/22 03:13:45;;;;;;;9.10;4.57;;;9.30;92.80;;;7.73;75.75;99937.78;10395814;28;96451;-85
2023/04/22 03:18:48;;;;;;;8.27;5.40;;;9.20;93.00;;;7.67;76.20;99943.69;10403814;28;96556;-86
2023/04/22 03:23:51;;;;;;;10.67;5.70;;;9.10;93.30;;;7.59;75.94;99941.00;10377890;27;96733;-87
2023/04/22 03:28:54;;;;;;;6.30;4.80;;;9.10;93.40;;;7.55;75.90;99942.28;10397708;28;98539;-87
2023/04/22 03:33:57;;;;;;;7.67;4.50;;;9.10;93.60;;;7.49;76.60;99948.19;10346427;28;97367;-87
2023/04/22 03:39:00;;;;;;;6.53;4.40;;;9.00;93.70;;;7.41;77.40;99951.59;10364496;28;96543;-87
2023/04/22 03:44:03;;;;;;;9.27;5.80;;;8.90;94.00;;;7.36;77.36;99955.69;10351012;28;97463;-87
2023/04/22 03:49:07;;;;;;;9.33;5.60;;;8.80;94.30;;;7.28;77.36;99947.72;10369121;28;96788;-86
2023/04/22 03:54:10;;;;;;;7.83;5.10;;;8.80;94.60;;;7.20;77.42;99962.53;10341537;28;97580;-87
2023/04/22 03:59:13;;;;;;;9.40;5.27;;;8.70;94.80;;;7.19;77.83;99966.13;10353938;28;96692;-87
2023/04/22 04:04:16;;;;;;;11.93;5.50;;;8.70;95.20;;;7.22;77.98;99965.81;10323504;28;98163;-86
2023/04/22 04:09:19;;;;;;;7.57;4.47;;;8.70;95.50;;;7.24;78.38;99966.50;10323909;28;98056;-86
2023/04/22 04:14:23;;;;;;;8.30;4.27;;;8.70;95.70;;;7.33;78.63;99983.28;10328527;28;96742;-86
2023/04/22 04:19:26;;;;;;;8.30;4.37;;;8.80;96.10;;;7.34;77.05;99977.00;10343594;28;98550;-85
2023/04/22 04:24:29;;;;;;;6.67;4.17;;;8.80;96.20;;;7.40;76.73;99979.03;10342667;28;96996;-86
2023/04/22 04:29:32;;;;;;;5.77;3.83;;;8.80;96.30;;;7.55;76.67;99989.06;10339113;28;96648;-86
2023/04/22 04:34:36;;;;;;;6.00;3.80;;;8.90;96.10;;;7.67;74.92;99980.72;10363811;28;96650;-86
2023/04/22 04:39:40;;;;;;;5.07;3.27;;;9.00;95.80;;;7.85;74.33;99990.44;10405877;28;96819;-86
2023/04/22 04:44:46;;;;;;;3.80;2.53;;;9.20;95.60;;;7.96;73.59;99992.81;10360305;28;98708;-85
2023/04/22 04:49:52;;;;;;;5.07;3.43;;;9.30;95.40;;;8.10;73.46;100000.19;10371293;28;98492;-86
2023/04/22 04:54:55;;;;;;;6.47;3.77;;;9.40;95.20;;;8.25;73.15;99988.03;10376161;28;96572;-86
2023/04/22 04:59:58;;;;;;;4.87;2.97;;;9.60;95.10;;;8.40;72.83;99992.78;10378555;28;96425;-87
2023/04/22 05:05:01;;;;;;;5.80;3.13;;;9.70;94.80;;;8.62;71.16;99997.47;10390125;28;96697;-86
2023/04/22 05:10:06;;;;;;;5.07;3.30;;;9.90;94.30;;;8.83;70.66;100000.53;10373249;28;96914;-86
2023/04/22 05:15:10;;;;;;;5.40;2.83;;;10.10;94.00;;;9.09;70.72;100004.91;10393800;28;97206;-87
2023/04/22 05:20:13;;;;;;;6.63;4.47;;;10.30;93.80;;;9.24;69.70;100002.44;10396264;28;96542;-87
2023/04/22 05:25:16;;;;;;;5.03;3.40;;;10.50;93.50;;;9.37;68.59;99997.47;10373120;27;97164;-85
2023/04/22 05:30:19;;;;;;;5.37;2.97;;;10.60;93.20;;;9.46;66.82;100006.25;10372362;28;96971;-85
2023/04/22 05:35:22;;;;;;;3.97;2.80;;;10.70;92.50;;;9.60;66.72;100003.78;10421424;27;97669;-85
2023/04/22 05:40:25;;;;;;;4.33;2.70;;;10.80;92.40;;;9.68;65.72;99999.47;10392141;28;96764;-85
2023/04/22 05:45:28;;;;;;;6.13;2.40;;;10.90;92.00;;;9.73;65.72;100008.59;10357678;28;97536;-85
2023/04/22 05:50:31;;;;;;;3.60;2.53;;;11.00;92.00;;;9.81;65.97;100010.41;10401439;28;96658;-85
2023/04/22 05:55:34;;;;;;;4.97;2.63;;;11.00;91.90;;;9.96;66.30;100006.09;10397862;27;96647;-85
2023/04/22 06:00:37;;;;;;;4.00;2.77;;;11.20;91.90;;;10.20;66.05;100005.19;10403054;27;97372;-85
2023/04/22 06:05:41;;;;;;;5.23;3.40;;;11.40;91.80;;;10.55;66.08;100005.75;10398561;28;97140;-85
2023/04/22 06:10:45;;;;;;;7.63;4.10;;;11.70;91.80;;;10.91;66.00;100006.91;10398682;28;97089;-85
2023/04/22 06:15:48;;;;;;;8.47;4.17;;;12.00;91.70;;;11.33;64.38;100010.16;10400102;28;96530;-84
2023/04/22 06:20:51;;;;;;;6.10;4.50;;;12.40;91.30;;;11.64;62.68;100007.44;10416256;27;96649;-84
2023/04/22 06:25:54;;;;;;;11.27;4.40;;;12.80;90.70;;;11.97;60.99;100007.97;10398193;27;96741;-88
2023/04/22 06:30:57;;;;;;;7.20;4.23;;;13.10;90.20;;;12.30;60.58;100016.47;10383616;27;98573;-85
2023/04/22 06:36:00;;;;;;;6.47;3.60;;;13.40;89.30;;;12.65;60.46;100014.06;10396421;27;98577;-85
2023/04/22 06:41:03;;;;;;;7.97;3.60;;;13.80;89.00;;;13.03;60.45;100002.22;10390255;27;97640;-84
2023/04/22 06:46:06;;;;;;;4.50;3.30;;;14.10;88.50;;;13.39;57.44;100006.72;10391422;28;96680;-90
2023/04/22 06:51:09;;;;;;;12.00;4.00;;;14.50;85.70;;;13.76;56.23;100007.47;10387135;28;97339;-84
2023/04/22 06:56:14;;;;;;;5.63;3.50;;;14.90;84.80;;;14.04;53.61;100005.63;10396266;28;98078;-78
2023/04/22 07:01:17;;;;;;;8.48;3.78;;;15.20;81.80;;;14.36;52.52;100006.84;10392929;27;97097;-81
2023/04/22 07:06:21;;;;;;;6.70;3.78;;;15.50;80.90;;;14.62;50.01;100013.38;10395344;28;96665;-82
2023/04/22 07:11:23;;;;;;;5.30;3.40;;;15.80;77.40;;;14.85;48.03;100005.88;10405801;27;98520;-82
2023/04/22 07:16:27;;;;;;;5.85;3.65;;;16.00;74.60;;;15.13;47.22;100007.63;10408146;27;97445;-82
2023/04/22 07:21:31;;;;;;;5.20;3.40;;;16.20;73.30;;;15.79;45.78;100011.22;10414251;27;97052;-82
2023/04/22 07:26:34;;;;;;;6.47;3.38;;;16.50;71.90;;;16.09;43.78;100000.06;10415608;28;96765;-82
2023/04/22 07:31:37;;;;;;;4.35;2.58;;;16.90;69.80;;;16.68;41.71;100007.16;10395540;27;96534;-82
2023/04/22 07:36:40;;;;;;;6.15;3.22;;;17.20;67.80;;;17.39;38.19;100003.47;10389395;28;96650;-83
2023/04/22 07:41:46;;;;;;;7.35;2.80;;;17.60;62.80;;;17.56;37.46;100003.78;10377143;28;98526;-83
2023/04/22 07:46:49;;;;;;;5.35;2.80;;;17.80;62.20;;;17.92;38.78;100003.09;10395968;28;97455;-83
2023/04/22 07:51:52;;;;;;;6.65;2.70;;;18.20;61.40;;;18.50;36.02;99993.84;10355317;28;96841;-83
2023/04/22 07:56:57;;;;;;;7.25;3.13;;;18.50;60.00;;;18.49;33.15;99992.19;10395536;28;97950;-83
2023/04/22 08:02:00;;;;;;;4.72;3.20;;;18.70;57.80;;;18.23;34.73;99996.78;10393021;28;96863;-83
2023/04/22 08:07:03;;;;;;;6.85;3.45;;;18.80;56.50;;;18.15;35.96;99992.53;10394643;28;96625;-83
2023/04/22 08:12:28;;;;;;;7.78;3.33;;;19.00;56.90;;;18.06;36.24;99985.81;10407822;27;97331;-82
2023/04/22 08:17:31;;;;;;;5.70;3.38;;;19.00;55.60;;;18.22;35.56;99984.41;10383191;28;98836;-84
2023/04/22 08:22:34;;;;;;;6.93;3.65;;;19.30;55.40;;;18.31;34.00;99988.47;10399482;27;98414;-84
2023/04/22 08:27:37;;;;;;;5.55;3.03;;;19.40;53.70;;;18.49;34.48;99986.81;10368824;28;96473;-84
2023/04/22 08:32:40;;;;;;;5.95;3.70;;;19.60;53.40;;;18.69;33.48;99990.94;10395111;28;96621;-85
2023/04/22 08:37:44;;;;;;;6.25;3.42;;;19.80;51.90;;;18.83;32.65;99991.63;10354885;28;98019;-84
2023/04/22 08:42:48;;;;;;;4.80;3.20;;;20.00;51.40;;;19.04;32.43;99992.97;10394469;28;96587;-85
2023/04/22 08:47:53;;;;;;;8.63;3.90;;;20.20;51.00;;;19.40;33.06;99985.84;10360369;28;96699;-84
2023/04/22 08:52:56;;;;;;;6.05;3.28;;;20.40;51.10;;;19.72;32.60;99975.59;10375598;28;96694;-85
2023/04/22 08:58:02;;;;;;;15.52;4.85;;;20.70;51.40;;;19.98;30.69;99977.84;10392144;28;96706;-84
2023/04/22 09:03:06;;;;;;;6.20;2.80;;;21.20;49.30;;;20.89;30.20;99978.16;10379237;28;97757;-85
2023/04/22 09:08:10;;;;;;;7.32;2.80;;;21.80;49.20;;;21.94;29.84;99967.81;10407203;28;97426;-86
2023/04/22 09:13:15;;;;;;;4.97;3.50;;;22.30;48.50;;;22.34;26.01;99967.59;10386192;28;97326;-87
2023/04/22 09:18:19;;;;;;;10.38;3.40;;;22.70;46.50;;;22.63;26.80;99957.41;10394688;28;96665;-87
2023/04/22 09:23:22;;;;;;;3.97;2.88;;;22.60;46.20;;;22.59;27.43;99969.81;10379774;27;97003;-88
2023/04/22 09:28:25;;;;;;;3.97;2.40;;;22.60;46.20;;;22.46;26.94;99968.28;10402991;28;96672;-87
2023/04/22 09:33:30;;;;;;;4.68;2.38;;;22.80;45.70;;;22.60;27.63;99957.88;10400638;28;98276;-83
2023/04/22 09:38:33;;;;;;;6.28;2.75;;;23.10;45.30;;;22.79;26.59;99961.09;10369851;28;98487;-87
2023/04/22 09:43:37;;;;;;;4.00;2.88;;;23.30;44.70;;;22.49;26.12;99956.97;10399779;28;97008;-87
2023/04/22 09:48:46;;;;;;;3.13;2.15;;;23.40;44.10;;;22.42;26.62;99949.00;10386525;28;96527;-86
2023/04/22 09:54:10;;;;;;;10.17;3.13;;;23.60;44.30;;;23.21;24.99;99935.03;10381054;28;96804;-86
2023/04/22 09:59:30;;;;;;;9.70;3.03;;;24.10;43.80;;;23.95;24.46;99917.16;10379962;28;97157;-85
2023/04/22 10:04:33;;;;;;;9.67;3.43;;;24.30;43.90;;;23.68;24.10;99918.03;10356199;28;98893;-85
2023/04/22 10:09:36;;;;;;;8.50;3.17;;;24.20;41.70;;;23.56;25.82;99909.25;10407678;27;96557;-86
2023/04/22 10:14:39;;;;;;;4.40;2.85;;;24.20;43.00;;;22.77;24.18;99911.78;10409440;27;98376;-85
2023/04/22 10:19:46;;;;;;;9.63;3.30;;;23.90;40.80;;;22.38;26.38;99914.59;10384665;28;96642;-87
2023/04/22 10:24:54;;;;;;;5.88;2.80;;;23.60;41.80;;;22.49;25.38;99913.66;10386378;28;96694;-86
2023/04/22 10:29:57;;;;;;;3.83;2.53;;;23.70;41.70;;;22.64;25.25;99904.88;10396266;28;97577;-86
2023/04/22 10:35:12;;;;;;;4.15;2.83;;;23.90;41.60;;;21.90;25.71;99902.56;10395894;27;98762;-85
2023/04/22 10:40:17;;;;;;;4.68;2.88;;;23.50;40.70;;;21.66;25.90;99898.44;10389442;28;96769;-85
2023/04/22 10:45:25;;;;;;;3.90;2.67;;;23.30;40.90;;;21.87;27.03;99892.25;10381145;28;98120;-85
2023/04/22 10:50:32;;;;;;;5.30;3.63;;;23.30;41.90;;;21.84;26.47;99892.75;10385626;27;96645;-84
2023/04/22 10:55:50;;;;;;;5.65;3.00;;;23.30;42.00;;;21.26;27.30;99894.00;10395709;28;97719;-84
2023/04/22 11:01:01;;;;;;;6.60;2.90;;;22.80;42.00;;;20.98;27.26;99894.84;10407826;27;97702;-85
2023/04/22 11:06:21;;;;;;;3.85;2.78;;;22.50;42.00;;;20.74;27.00;99891.44;10398246;27;97381;-84
2023/04/22 11:11:25;;;;;;;5.53;3.17;;;22.10;42.20;;;20.44;27.46;99897.88;10402304;28;96519;-84
2023/04/22 11:16:28;;;;;;;4.18;2.88;;;21.90;42.50;;;20.30;28.13;99900.03;10386672;27;96509;-85
2023/04/22 11:21:32;;;;;;;5.10;2.83;;;21.60;43.10;;;20.29;28.59;99897.59;10411677;27;96707;-85
2023/04/22 11:26:36;;;;;;;6.45;2.70;;;21.50;43.50;;;20.23;27.91;99901.22;10411999;28;98130;-87
2023/04/22 11:31:46;;;;;;;5.05;2.58;;;21.40;43.10;;;20.12;29.37;99902.91;10409351;27;98742;-89
2023/04/22 11:36:49;;;;;;;6.10;3.10;;;21.30;44.00;;;19.98;29.46;99894.25;10383835;28;98406;-89
2023/04/22 11:41:52;;;;;;;4.10;2.67;;;21.20;44.20;;;19.86;29.63;99893.44;10384742;28;96610;-89
2023/04/22 11:46:56;;;;;;;5.18;2.92;;;21.00;44.50;;;19.80;30.14;99891.69;10384886;27;97250;-87
2023/04/22 11:51:59;;;;;;;6.18;2.70;;;21.00;44.80;;;19.90;30.99;99891.91;10385248;28;96504;-88
2023/04/22 11:57:07;;;;;;;4.22;2.80;;;21.10;45.30;;;20.02;30.56;99895.41;10397934;28;96948;-89
2023/04/22 12:02:10;;;;;;;4.07;3.05;;;21.20;45.10;;;20.11;29.82;99895.03;10390423;28;96505;-90
2023/04/22 12:07:14;;;;;;;4.57;2.50;;;21.30;44.80;;;20.12;30.81;99894.81;10385757;28;96677;-89
2023/04/22 12:12:17;;;;;;;5.45;2.67;;;21.30;45.40;;;20.84;29.67;99889.75;10381402;28;96509;-89
2023/04/22 12:17:24;;;;;;;4.57;2.65;;;22.00;45.50;;;22.20;28.02;99874.31;10411253;28;96467;-90
2023/04/22 12:22:29;;;;;;;3.97;2.72;;;23.60;45.20;;;23.66;27.15;99871.38;10377970;28;97358;-90
2023/04/22 12:27:32;;;;;;;4.50;2.50;;;25.20;44.10;;;24.58;25.13;99863.66;10396350;28;96712;-90
2023/04/22 12:32:35;;;;;;;3.72;1.98;;;26.40;42.50;;;24.69;24.74;99861.78;10393108;28;96671;-90
2023/04/22 12:37:38;;;;;;;3.75;2.45;;;26.30;41.20;;;24.90;23.46;99857.22;10412458;28;96666;-90
2023/04/22 12:42:41;;;;;;;3.05;2.20;;;26.80;40.50;;;24.90;22.75;99852.59;10390237;28;96717;-90
2023/04/22 12:47:45;;;;;;;5.53;2.50;;;26.70;40.00;;;24.56;23.67;99846.81;10376558;28;96649;-92
2023/04/22 12:52:49;;;;;;;4.32;2.90;;;26.50;39.50;;;24.76;23.48;99846.84;10380405;28;96558;-91
2023/04/22 12:57:52;;;;;;;3.63;2.80;;;26.50;39.00;;;24.36;23.43;99842.16;10408359;27;97402;-91
2023/04/22 13:02:55;;;;;;;4.95;2.40;;;26.10;38.60;;;23.67;23.63;99845.06;10400141;28;96642;-88
2023/04/22 13:07:59;;;;;;;3.53;2.75;;;25.50;38.60;;;23.40;24.19;99840.56;10395714;27;97259;-88
2023/04/22 13:13:09;;;;;;;5.70;2.72;;;25.00;38.90;;;23.36;25.13;99833.19;10380034;27;98512;-91
2023/04/22 13:18:22;;;;;;;7.72;2.92;;;24.90;39.60;;;23.22;24.29;99836.34;10405260;28;97250;-89
2023/04/22 13:23:26;;;;;;;3.30;2.60;;;24.80;39.20;;;23.40;24.55;99840.56;10411569;28;97145;-90
2023/04/22 13:28:29;;;;;;;4.65;2.35;;;25.00;39.60;;;23.59;23.82;99830.09;10385327;28;98138;-90
2023/04/22 13:33:32;;;;;;;5.05;2.67;;;25.30;39.20;;;24.07;25.17;99828.19;10394313;27;97472;-90
2023/04/22 13:38:35;;;;;;;4.38;2.70;;;25.70;39.70;;;24.50;23.77;99826.97;10379257;27;98770;-90
2023/04/22 13:43:38;;;;;;;5.20;2.72;;;26.30;39.10;;;24.60;22.56;99818.03;10401097;28;97345;-88
2023/04/22 13:48:41;;;;;;;2.60;2.08;;;26.40;38.10;;;24.83;22.81;99816.72;10382207;28;98381;-87
2023/04/22 13:53:44;;;;;;;4.10;2.85;;;26.60;38.20;;;24.85;22.39;99803.66;10372761;27;97559;-89
2023/04/22 13:58:47;;;;;;;5.85;3.20;;;26.60;38.00;;;24.91;22.85;99815.34;10389860;28;98582;-88
2023/04/22 14:03:53;;;;;;;4.32;2.92;;;26.70;37.80;;;24.61;22.86;99806.09;10403281;27;97469;-89
2023/04/22 14:08:56;;;;;;;4.28;2.35;;;26.40;37.70;;;24.24;22.80;99809.78;10370498;27;98364;-88
2023/04/22 14:13:59;;;;;;;6.03;3.08;;;25.80;37.80;;;23.72;23.71;99807.13;10378880;28;96637;-87
2023/04/22 14:19:04;;;;;;;5.93;2.67;;;25.30;38.40;;;23.26;23.95;99808.72;10394939;27;97889;-87
2023/04/22 14:24:07;;;;;;;4.70;3.10;;;24.80;38.50;;;23.45;24.97;99796.34;10431698;27;96713;-87
2023/04/22 14:29:11;;;;;;;8.02;3.25;;;25.10;39.00;;;23.69;23.94;99799.50;10399678;28;99648;-89
2023/04/22 14:34:14;;;;;;;5.18;2.50;;;25.50;38.50;;;23.57;24.25;99804.28;10381788;28;96618;-88
2023/04/22 14:39:17;;;;;;;6.18;2.75;;;25.30;38.60;;;23.19;24.32;99801.63;10371536;27;96856;-88
2023/04/22 14:44:20;;;;;;;7.82;3.20;;;24.80;38.60;;;22.97;24.85;99795.50;10399622;28;96494;-89
2023/04/22 14:49:23;;;;;;;4.80;2.83;;;24.60;39.20;;;23.59;25.75;99789.41;10399085;28;96526;-89
2023/04/22 14:54:27;;;;;;;4.57;3.08;;;25.30;39.70;;;24.24;24.13;99790.78;10404905;27;96543;-89
2023/04/22 14:59:30;;;;;;;4.35;2.58;;;26.20;39.00;;;24.56;23.26;99793.31;10416273;28;98132;-89
2023/04/22 15:04:33;;;;;;;5.07;3.15;;;26.60;38.10;;;24.36;23.73;99787.84;10396563;28;96556;-89
2023/04/22 15:09:36;;;;;;;4.18;2.60;;;26.40;37.80;;;23.91;23.53;99788.50;10390143;28;97495;-89
2023/04/22 15:14:39;;;;;;;4.55;2.53;;;25.80;37.60;;;23.27;24.16;99792.22;10393987;28;98727;-89
2023/04/22 15:19:42;;;;;;;3.45;2.33;;;25.00;38.10;;;22.82;24.88;99800.75;10377874;27;97576;-88
2023/04/22 15:24:46;;;;;;;4.63;3.00;;;24.40;38.70;;;22.24;25.60;99799.66;10399816;28;96569;-90
2023/04/22 15:29:50;;;;;;;4.55;3.10;;;23.80;39.00;;;21.91;26.23;99802.22;10370434;28;97277;-88
2023/04/22 15:34:54;;;;;;;4.72;2.88;;;23.40;39.80;;;21.55;26.43;99809.06;10410955;28;98564;-87
2023/04/22 15:39:57;;;;;;;5.72;3.50;;;23.00;40.00;;;21.19;26.78;99794.19;10377290;28;96776;-87
2023/04/22 15:45:02;;;;;;;3.88;2.75;;;22.60;40.30;;;20.92;27.60;99799.41;10396760;28;96596;-89
2023/04/22 15:50:08;;;;;;;10.43;3.92;;;22.30;41.00;;;20.75;28.27;99794.03;10398395;28;96448;-88
2023/04/22 15:55:11;;;;;;;5.18;3.20;;;22.10;41.90;;;20.67;28.97;99802.50;10398489;28;96785;-88
2023/04/22 16:00:15;;;;;;;5.20;2.60;;;21.90;42.30;;;20.54;28.44;99800.94;10397539;28;98625;-87
2023/04/22 16:05:19;;;;;;;3.50;2.60;;;21.90;42.20;;;20.46;28.38;99805.94;10398554;28;96581;-87
2023/04/22 16:10:25;;;;;;;5.72;2.90;;;21.80;42.00;;;20.32;28.94;99799.94;10397951;28;97103;-89
2023/04/22 16:15:28;;;;;;;4.13;2.63;;;21.60;42.20;;;20.19;29.45;99800.25;10395856;28;96699;-88
2023/04/22 16:20:31;;;;;;;4.47;2.80;;;21.50;42.70;;;20.10;29.99;99791.72;10396396;28;96592;-88
2023/04/22 16:25:34;;;;;;;4.43;2.95;;;21.40;43.10;;;20.08;30.22;99785.72;10358545;28;97796;-85
2023/04/22 16:30:38;;;;;;;3.78;2.83;;;21.40;43.50;;;20.27;30.54;99781.81;10371599;28;96784;-86
2023/04/22 16:42:48;;;;;;;4.60;2.70;;;22.00;43.80;;;20.87;30.13;99785.00;10411166;28;97113;-85
2023/04/22 16:47:50;;;;;;;6.20;3.33;;;22.30;43.50;;;20.89;30.11;99772.91;10386570;28;96452;-85
2023/04/22 16:52:53;;;;;;;6.82;4.63;;;22.30;43.70;;;20.78;30.24;99776.50;10416232;27;97141;-85
2023/04/22 16:57:59;;;;;;;10.45;4.93;;;22.20;43.80;;;20.55;30.12;99775.59;10389324;28;96874;-87
2023/04/22 17:03:02;;;;;;;7.03;5.15;;;22.00;44.00;;;20.25;31.15;99775.00;10416482;27;98258;-87
2023/04/22 17:08:06;;;;;;;9.38;5.05;;;21.70;44.60;;;19.96;32.21;99780.38;10401756;28;96597;-86
2023/04/22 17:13:12;;;;;;;12.15;6.60;;;21.40;45.20;;;19.66;33.60;99780.56;10380927;28;97594;-87
2023/04/22 17:18:15;;;;;;;9.32;5.68;;;21.00;46.10;;;19.30;34.07;99787.03;10364675;28;96679;-85
2023/04/22 17:23:18;;;;;;;12.23;5.15;;;20.70;46.70;;;18.92;35.32;99791.00;10379798;28;96553;-86
2023/04/22 17:28:22;;;;;;;8.48;4.85;;;20.30;47.40;;;18.53;35.70;99778.13;10412647;28;96518;-87
2023/04/22 17:33:25;;;;;;;6.45;3.60;;;19.90;48.00;;;18.13;36.42;99789.47;10379801;28;98501;-87
2023/04/22 17:38:28;;;;;;;8.25;3.60;;;19.40;48.50;;;17.77;37.53;99798.38;10389484;27;98375;-87
2023/04/22 17:43:31;;;;;;;8.60;4.78;;;19.10;49.30;;;17.37;39.18;99804.94;10384282;27;96566;-86
2023/04/22 17:48:35;;;;;;;6.05;4.00;;;18.70;50.40;;;17.02;40.24;99803.81;10377312;28;97098;-87
2023/04/22 17:53:40;;;;;;;12.05;6.38;;;18.30;51.30;;;16.69;40.85;99810.25;10401594;28;96784;-87
2023/04/22 17:58:43;;;;;;;7.32;4.75;;;17.90;52.10;;;16.37;42.26;99814.75;10389363;28;98236;-87
2023/04/22 18:03:46;;;;;;;7.30;4.65;;;17.60;52.80;;;16.03;43.65;99835.56;10395371;28;98388;-86
2023/04/22 18:08:50;;;;;;;9.65;5.00;;;17.30;53.90;;;15.67;44.88;99830.72;10396494;28;96708;-87
2023/04/22 18:13:54;;;;;;;8.98;5.50;;;16.90;54.70;;;15.38;44.75;99836.50;10398835;28;97162;-86
2023/04/22 18:18:58;;;;;;;6.70;4.32;;;16.60;55.20;;;15.07;45.10;99843.31;10403398;27;97785;-86
2023/04/22 18:24:01;;;;;;;6.03;4.30;;;16.30;55.50;;;14.79;45.65;99845.34;10395796;28;96665;-86
2023/04/22 18:29:04;;;;;;;6.43;4.40;;;16.00;56.00;;;14.54;46.39;99856.63;10397921;28;97136;-86
2023/04/22 18:34:11;;;;;;;7.50;4.10;;;15.80;56.70;;;14.32;46.66;99857.75;10340975;28;98532;-86
2023/04/22 18:39:15;;;;;;;6.00;3.50;;;15.60;57.50;;;14.16;46.42;99870.44;10341033;28;98485;-86
2023/04/22 18:44:19;;;;;;;5.95;4.22;;;15.40;57.00;;;14.01;47.04;99872.41;10333333;28;97334;-86
2023/04/22 18:49:22;;;;;;;13.87;7.33;;;15.20;57.40;;;13.83;48.50;99870.28;10321754;28;96864;-86
2023/04/22 18:54:26;;;;;;;13.07;7.37;;;15.10;58.10;;;13.61;49.26;99876.69;10331990;28;97599;-85
2023/04/22 18:59:32;;;;;;;7.53;4.87;;;14.90;58.70;;;13.36;50.10;99879.81;10323188;28;96607;-85
2023/04/22 19:04:35;;;;;;;8.93;5.00;;;14.60;59.30;;;13.16;50.92;99872.66;10334405;28;96437;-86
2023/04/22 19:09:38;;;;;;;10.30;4.67;;;14.40;59.90;;;12.95;51.39;99870.81;10322436;28;96559;-85
2023/04/22 19:14:41;;;;;;;6.17;4.23;;;14.20;60.70;;;12.78;51.75;99870.25;10318266;28;96554;-85
2023/04/22 19:19:45;;;;;;;7.77;3.67;;;14.00;60.80;;;12.62;52.00;99881.97;10318479;28;96712;-85
2023/04/22 19:24:48;;;;;;;7.73;4.47;;;13.90;61.30;;;12.49;52.25;99876.50;10317479;28;96712;-85
2023/04/22 19:29:52;;;;;;;7.50;4.10;;;13.80;61.40;;;12.39;52.69;99876.78;10330895;28;96815;-87
2023/04/22 19:34:55;;;;;;;7.83;4.47;;;13.70;61.90;;;12.26;53.33;99876.66;10393358;27;97595;-84
2023/04/22 19:39:58;;;;;;;6.43;4.47;;;13.50;62.30;;;12.15;54.24;99874.44;10379690;27;98338;-85
2023/04/22 19:45:01;;;;;;;8.43;4.70;;;13.40;63.00;;;12.05;54.45;99877.38;10374516;27;97392;-84
2023/04/22 19:50:08;;;;;;;8.30;4.70;;;13.30;63.20;;;11.89;55.24;99878.44;10374868;27;98283;-84
2023/04/22 19:55:12;;;;;;;7.27;5.03;;;13.20;64.10;;;11.75;56.08;99873.88;10386411;28;97808;-84
2023/04/22 20:00:16;;;;;;;13.40;5.67;;;13.00;64.50;;;11.62;55.99;99876.34;10355191;27;96602;-83
2023/04/22 20:05:21;;;;;;;12.00;6.67;;;12.90;64.90;;;11.53;56.74;99881.78;10371413;27;97706;-83
2023/04/22 20:10:25;;;;;;;12.87;6.83;;;12.80;65.30;;;11.43;57.40;99885.69;10380662;27;96799;-84
2023/04/22 20:15:28;;;;;;;11.77;6.73;;;12.70;65.90;;;11.31;57.72;99887.97;10398957;27;97752;-83
2023/04/22 20:20:31;;;;;;;9.63;5.17;;;12.60;66.40;;;11.20;58.08;99881.22;10416612;28;96540;-83
2023/04/22 20:25:40;;;;;;;8.83;5.40;;;12.50;66.80;;;11.12;58.17;99886.63;10396810;28;96516;-83
2023/04/22 20:30:44;;;;;;;12.30;5.57;;;12.40;67.20;;;11.01;58.89;99886.22;10376448;28;96595;-84
2023/04/22 20:35:48;;;;;;;7.23;4.97;;;12.30;67.60;;;10.88;59.16;99877.00;10416635;28;96534;-84
2023/04/22 20:40:52;;;;;;;10.37;5.77;;;12.20;68.40;;;10.76;59.52;99881.09;10429868;28;96567;-84
2023/04/22 20:45:55;;;;;;;13.50;5.90;;;12.00;68.60;;;10.68;59.39;99876.66;10404191;28;97363;-84
2023/04/22 20:50:58;;;;;;;11.67;6.30;;;12.00;68.30;;;10.68;59.54;99874.00;10377824;27;96834;-84
2023/04/22 20:56:02;;;;;;;8.37;5.17;;;12.00;68.70;;;10.66;59.72;99878.66;10395988;28;98255;-84
2023/04/22 21:01:07;;;;;;;12.20;5.70;;;12.00;68.70;;;10.60;60.38;99878.53;10396154;28;96940;-84
2023/04/22 21:06:11;;;;;;;7.97;4.77;;;12.00;69.20;;;10.53;60.16;99873.09;10362091;28;96816;-84
2023/04/22 21:11:15;;;;;;;8.33;5.50;;;11.90;69.30;;;10.47;60.23;99880.94;10377228;28;96647;-83